createdAt,value
2018-10-19T00:00:47.295Z,90.40
2018-10-19T00:01:50.909Z,90.00
2018-10-19T00:02:55.093Z,90.10
2018-10-19T00:03:58.705Z,90.10
2018-10-19T00:05:02.326Z,90.10
2018-10-19T00:06:05.999Z,90.30
2018-10-19T00:07:09.671Z,90.10
2018-10-19T00:08:13.255Z,90.10
2018-10-19T00:09:16.874Z,90.00
2018-10-19T00:10:20.429Z,90.10
2018-10-19T00:11:24.052Z,90.10
2018-10-19T00:12:27.611Z,90.10
2018-10-19T00:13:31.211Z,90.00
2018-10-19T00:14:34.791Z,90.10
2018-10-19T00:15:38.366Z,90.10
2018-10-19T00:16:41.973Z,90.10
2018-10-19T00:17:45.592Z,89.70
2018-10-19T00:18:49.419Z,90.10
2018-10-19T00:19:53.072Z,90.20
2018-10-19T00:20:56.655Z,90.20
2018-10-19T00:22:00.215Z,90.20
2018-10-19T00:23:03.852Z,90.30
2018-10-19T00:24:07.374Z,90.40
2018-10-19T00:25:10.955Z,90.30
2018-10-19T00:26:14.614Z,90.30
2018-10-19T00:27:18.193Z,90.50
2018-10-19T00:28:21.739Z,90.50
2018-10-19T00:29:25.323Z,90.80
2018-10-19T00:30:28.907Z,90.40
2018-10-19T00:31:32.502Z,90.40
2018-10-19T00:32:36.163Z,90.30
2018-10-19T00:33:39.849Z,90.30
2018-10-19T00:34:43.395Z,90.30
2018-10-19T00:35:46.959Z,90.70
2018-10-19T00:36:50.571Z,90.30
2018-10-19T00:37:54.114Z,90.30
2018-10-19T00:38:57.717Z,90.70
2018-10-19T00:40:01.289Z,90.30
2018-10-19T00:41:05.138Z,90.40
2018-10-19T00:42:08.663Z,90.40
2018-10-19T00:43:12.279Z,90.40
2018-10-19T00:44:15.855Z,90.50
2018-10-19T00:45:23.584Z,90.40
2018-10-19T00:46:27.175Z,90.50
2018-10-19T00:47:31.007Z,90.40
2018-10-19T00:48:34.587Z,90.50
2018-10-19T00:49:38.175Z,90.70
2018-10-19T00:50:41.958Z,90.80
2018-10-19T00:51:45.532Z,90.80
2018-10-19T00:52:49.111Z,90.70
2018-10-19T00:53:52.682Z,90.60
2018-10-19T00:54:56.247Z,90.60
2018-10-19T00:55:59.826Z,90.60
2018-10-19T00:57:03.419Z,90.60
2018-10-19T00:58:07.138Z,90.60
2018-10-19T00:59:10.759Z,90.60
2018-10-19T01:00:14.279Z,90.60
2018-10-19T01:01:17.854Z,90.60
2018-10-19T01:02:21.647Z,90.80
2018-10-19T01:03:25.224Z,90.80
2018-10-19T01:04:28.809Z,90.80
2018-10-19T01:05:32.389Z,90.70
2018-10-19T01:06:35.979Z,90.70
2018-10-19T01:07:39.555Z,90.70
2018-10-19T01:08:43.130Z,90.60
2018-10-19T01:09:46.707Z,91.00
2018-10-19T01:10:50.297Z,90.60
2018-10-19T01:11:53.887Z,90.60
2018-10-19T01:12:58.663Z,90.60
2018-10-19T01:14:02.243Z,90.60
2018-10-19T01:15:06.101Z,90.70
2018-10-19T01:16:09.659Z,90.70
2018-10-19T01:17:13.391Z,90.70
2018-10-19T01:18:16.846Z,90.80
2018-10-19T01:19:20.419Z,90.70
2018-10-19T01:20:23.995Z,90.80
2018-10-19T01:21:27.611Z,91.20
2018-10-19T01:22:31.199Z,90.80
2018-10-19T01:23:34.843Z,90.80
2018-10-19T01:24:38.387Z,90.80
2018-10-19T01:25:42.589Z,90.80
2018-10-19T01:26:46.228Z,90.80
2018-10-19T01:27:50.063Z,90.80
2018-10-19T01:28:53.709Z,90.90
2018-10-19T01:29:57.251Z,90.80
2018-10-19T01:31:00.872Z,90.80
2018-10-19T01:32:04.489Z,90.80
2018-10-19T01:33:08.100Z,90.90
2018-10-19T01:34:11.667Z,90.80
2018-10-19T01:35:15.299Z,90.80
2018-10-19T01:36:18.823Z,90.80
2018-10-19T01:37:22.403Z,90.90
2018-10-19T01:38:25.963Z,90.90
2018-10-19T01:39:30.609Z,90.90
2018-10-19T01:40:34.187Z,90.90
2018-10-19T01:41:37.746Z,90.90
2018-10-19T01:42:41.377Z,90.90
2018-10-19T01:43:44.939Z,90.90
2018-10-19T01:44:48.595Z,90.90
2018-10-19T01:45:56.281Z,91.00
2018-10-19T01:46:59.878Z,91.00
2018-10-19T01:48:03.436Z,91.00
2018-10-19T01:49:07.015Z,90.90
2018-10-19T01:50:11.323Z,91.00
2018-10-19T01:51:14.945Z,91.00
2018-10-19T01:52:18.479Z,91.10
2018-10-19T01:53:22.084Z,91.10
2018-10-19T01:54:25.638Z,91.10
2018-10-19T01:55:29.235Z,91.00
2018-10-19T01:56:32.851Z,91.00
2018-10-19T01:57:36.418Z,91.00
2018-10-19T01:58:39.976Z,91.00
2018-10-19T01:59:43.555Z,91.10
2018-10-19T02:00:47.179Z,91.10
2018-10-19T02:01:50.769Z,91.10
2018-10-19T02:02:54.400Z,91.10
2018-10-19T02:03:57.917Z,91.10
2018-10-19T02:05:01.549Z,91.10
2018-10-19T02:06:05.067Z,91.10
2018-10-19T02:07:08.638Z,91.10
2018-10-19T02:08:12.230Z,91.10
2018-10-19T02:09:15.804Z,91.10
2018-10-19T02:10:19.384Z,91.10
2018-10-19T02:11:22.938Z,91.10
2018-10-19T02:12:26.555Z,91.20
2018-10-19T02:13:30.102Z,91.10
2018-10-19T02:14:33.708Z,91.20
2018-10-19T02:15:37.671Z,91.20
2018-10-19T02:16:41.324Z,91.20
2018-10-19T02:17:44.894Z,91.20
2018-10-19T02:18:48.454Z,91.20
2018-10-19T02:19:52.096Z,91.20
2018-10-19T02:20:55.670Z,91.20
2018-10-19T02:21:59.212Z,91.20
2018-10-19T02:23:02.812Z,91.20
2018-10-19T02:24:06.353Z,91.60
2018-10-19T02:25:09.943Z,91.20
2018-10-19T02:26:13.511Z,91.20
2018-10-19T02:27:17.103Z,91.30
2018-10-19T02:28:20.671Z,91.30
2018-10-19T02:29:24.248Z,91.30
2018-10-19T02:30:27.812Z,91.20
2018-10-19T02:31:31.382Z,91.30
2018-10-19T02:32:34.961Z,91.30
2018-10-19T02:33:38.530Z,91.30
2018-10-19T02:34:42.091Z,91.30
2018-10-19T02:35:45.665Z,91.40
2018-10-19T02:36:49.259Z,91.40
2018-10-19T02:37:52.843Z,91.40
2018-10-19T02:38:56.491Z,91.30
2018-10-19T02:40:00.039Z,91.40
2018-10-19T02:41:03.633Z,91.30
2018-10-19T02:42:07.222Z,91.30
2018-10-19T02:43:10.795Z,91.40
2018-10-19T02:44:14.403Z,91.40
2018-10-19T02:45:18.072Z,91.40
2018-10-19T02:46:21.574Z,91.40
2018-10-19T02:47:25.179Z,91.40
2018-10-19T02:48:28.779Z,91.40
2018-10-19T02:49:32.400Z,91.40
2018-10-19T02:50:36.023Z,91.40
2018-10-19T02:51:39.611Z,91.40
2018-10-19T02:52:43.188Z,91.40
2018-10-19T02:53:46.762Z,91.40
2018-10-19T02:54:50.387Z,91.40
2018-10-19T02:55:53.975Z,91.40
2018-10-19T02:56:57.712Z,91.40
2018-10-19T02:58:01.208Z,91.40
2018-10-19T02:59:05.072Z,91.40
2018-10-19T03:00:10.589Z,91.40
2018-10-19T03:01:14.179Z,91.40
2018-10-19T03:02:17.742Z,91.40
2018-10-19T03:03:21.327Z,91.50
2018-10-19T03:04:24.937Z,91.50
2018-10-19T03:05:28.535Z,91.50
2018-10-19T03:06:32.155Z,91.50
2018-10-19T03:07:35.765Z,91.50
2018-10-19T03:08:39.343Z,91.50
2018-10-19T03:09:42.927Z,91.90
2018-10-19T03:10:46.583Z,91.50
2018-10-19T03:11:50.173Z,91.50
2018-10-19T03:12:53.743Z,91.50
2018-10-19T03:13:57.315Z,91.50
2018-10-19T03:15:01.066Z,91.50
2018-10-19T03:16:04.963Z,91.50
2018-10-19T03:17:08.601Z,91.50
2018-10-19T03:18:12.106Z,91.50
2018-10-19T03:19:15.712Z,91.50
2018-10-19T03:20:19.307Z,91.50
2018-10-19T03:21:22.871Z,91.60
2018-10-19T03:22:26.454Z,91.60
2018-10-19T03:23:30.093Z,91.60
2018-10-19T03:24:33.694Z,91.60
2018-10-19T03:25:37.284Z,91.50
2018-10-19T03:26:40.950Z,91.60
2018-10-19T03:27:44.541Z,91.60
2018-10-19T03:28:48.124Z,91.60
2018-10-19T03:29:51.719Z,91.60
2018-10-19T03:30:55.423Z,91.60
2018-10-19T03:31:58.934Z,91.60
2018-10-19T03:33:02.593Z,91.60
2018-10-19T03:34:06.123Z,91.60
2018-10-19T03:35:09.787Z,91.60
2018-10-19T03:36:13.290Z,91.60
2018-10-19T03:37:16.897Z,92.00
2018-10-19T03:38:20.445Z,91.60
2018-10-19T03:39:24.025Z,91.60
2018-10-19T03:40:27.591Z,91.60
2018-10-19T03:41:31.171Z,91.70
2018-10-19T03:42:34.739Z,91.70
2018-10-19T03:43:38.346Z,91.60
2018-10-19T03:44:41.908Z,91.60
2018-10-19T03:45:45.479Z,91.70
2018-10-19T03:46:49.064Z,91.60
2018-10-19T03:47:52.622Z,91.70
2018-10-19T03:48:56.221Z,91.70
2018-10-19T03:49:59.759Z,91.70
2018-10-19T03:51:03.446Z,91.70
2018-10-19T03:52:07.160Z,91.70
2018-10-19T03:53:10.886Z,91.80
2018-10-19T03:54:14.406Z,91.80
2018-10-19T03:55:17.943Z,91.80
2018-10-19T03:56:21.509Z,91.80
2018-10-19T03:57:25.080Z,91.80
2018-10-19T03:58:28.666Z,91.80
2018-10-19T03:59:32.391Z,91.90
2018-10-19T04:00:35.987Z,91.90
2018-10-19T04:01:39.636Z,91.90
2018-10-19T04:02:43.189Z,92.00
2018-10-19T04:03:46.820Z,92.00
2018-10-19T04:04:50.319Z,92.00
2018-10-19T04:05:53.911Z,92.10
2018-10-19T04:06:57.529Z,92.20
2018-10-19T04:08:01.179Z,92.20
2018-10-19T04:09:08.195Z,92.20
2018-10-19T04:10:11.706Z,92.30
2018-10-19T04:11:15.314Z,92.30
2018-10-19T04:12:18.920Z,92.40
2018-10-19T04:13:22.504Z,92.40
2018-10-19T04:14:26.698Z,92.50
2018-10-19T04:15:30.275Z,92.50
2018-10-19T04:16:33.895Z,92.40
2018-10-19T04:17:37.541Z,92.50
2018-10-19T04:18:41.119Z,92.80
2018-10-19T04:19:44.691Z,92.40
2018-10-19T04:20:48.275Z,92.50
2018-10-19T04:21:51.850Z,92.50
2018-10-19T04:23:00.923Z,92.50
2018-10-19T04:24:04.662Z,92.50
2018-10-19T04:25:08.275Z,92.50
2018-10-19T04:26:11.908Z,92.50
2018-10-19T04:27:15.614Z,92.50
2018-10-19T04:28:19.088Z,92.90
2018-10-19T04:29:22.672Z,92.50
2018-10-19T04:30:26.250Z,92.50
2018-10-19T04:31:29.895Z,92.40
2018-10-19T04:32:33.444Z,92.40
2018-10-19T04:33:37.019Z,92.40
2018-10-19T04:34:40.611Z,92.40
2018-10-19T04:35:44.258Z,92.40
2018-10-19T04:36:47.823Z,92.30
2018-10-19T04:37:51.437Z,92.30
2018-10-19T04:38:55.019Z,92.20
2018-10-19T04:39:58.590Z,92.20
2018-10-19T04:41:02.187Z,92.20
2018-10-19T04:42:05.915Z,92.20
2018-10-19T04:43:09.386Z,92.20
2018-10-19T04:44:12.978Z,92.00
2018-10-19T04:45:17.198Z,92.00
2018-10-19T04:46:20.743Z,92.00
2018-10-19T04:47:24.364Z,92.20
2018-10-19T04:48:27.915Z,92.00
2018-10-19T04:49:31.511Z,91.70
2018-10-19T04:50:35.087Z,92.10
2018-10-19T04:51:38.693Z,91.70
2018-10-19T04:53:52.313Z,91.90
2018-10-19T04:54:55.823Z,91.50
2018-10-19T04:55:59.423Z,91.40
2018-10-19T04:57:04.331Z,91.40
2018-10-19T04:58:08.007Z,91.30
2018-10-19T04:59:11.666Z,91.30
2018-10-19T05:00:16.811Z,91.20
2018-10-19T05:01:20.433Z,91.10
2018-10-19T05:02:24.073Z,91.00
2018-10-19T05:03:27.641Z,91.00
2018-10-19T05:04:31.236Z,90.80
2018-10-19T05:05:34.799Z,90.70
2018-10-19T05:06:38.470Z,90.70
2018-10-19T05:07:42.001Z,90.60
2018-10-19T05:08:45.588Z,90.50
2018-10-19T05:09:49.183Z,90.50
2018-10-19T05:10:52.841Z,90.40
2018-10-19T05:11:56.364Z,90.40
2018-10-19T05:13:00.003Z,90.30
2018-10-19T05:14:03.618Z,90.30
2018-10-19T05:15:08.303Z,90.30
2018-10-19T05:16:11.955Z,90.30
2018-10-19T05:17:15.554Z,90.30
2018-10-19T05:18:19.083Z,90.30
2018-10-19T05:19:22.680Z,90.40
2018-10-19T05:20:27.037Z,90.20
2018-10-19T05:21:31.883Z,90.20
2018-10-19T05:22:35.546Z,90.20
2018-10-19T05:23:39.133Z,90.20
2018-10-19T05:24:42.774Z,90.20
2018-10-19T05:25:46.315Z,90.20
2018-10-19T05:26:49.899Z,90.20
2018-10-19T05:27:53.478Z,90.10
2018-10-19T05:28:57.176Z,90.10
2018-10-19T05:30:00.715Z,90.10
2018-10-19T05:31:04.579Z,90.10
2018-10-19T05:32:08.198Z,90.10
2018-10-19T05:33:11.759Z,90.10
2018-10-19T05:34:15.343Z,90.10
2018-10-19T05:35:18.951Z,90.10
2018-10-19T05:36:22.527Z,90.10
2018-10-19T05:37:26.116Z,90.10
2018-10-19T05:38:29.706Z,90.10
2018-10-19T05:39:33.278Z,90.10
2018-10-19T05:40:37.013Z,90.10
2018-10-19T05:41:40.571Z,90.20
2018-10-19T05:42:44.246Z,90.20
2018-10-19T05:43:47.805Z,90.20
2018-10-19T05:44:51.453Z,90.40
2018-10-19T05:45:55.011Z,90.20
2018-10-19T05:46:58.600Z,90.20
2018-10-19T05:48:02.163Z,90.20
2018-10-19T05:49:05.930Z,90.30
2018-10-19T05:50:10.658Z,90.30
2018-10-19T05:51:14.175Z,90.20
2018-10-19T05:52:17.743Z,90.20
2018-10-19T05:53:21.328Z,90.20
2018-10-19T05:54:25.453Z,90.30
2018-10-19T05:55:29.055Z,90.20
2018-10-19T05:56:32.618Z,90.30
2018-10-19T05:57:36.636Z,90.30
2018-10-19T05:58:40.223Z,90.30
2018-10-19T05:59:43.869Z,90.50
2018-10-19T06:00:47.402Z,90.30
2018-10-19T06:01:50.999Z,90.30
2018-10-19T06:02:54.579Z,90.30
2018-10-19T06:03:58.142Z,90.30
2018-10-19T06:05:01.905Z,90.30
2018-10-19T06:06:05.458Z,90.40
2018-10-19T06:07:09.104Z,90.40
2018-10-19T06:08:12.723Z,90.40
2018-10-19T06:09:16.238Z,90.80
2018-10-19T06:10:19.798Z,91.30
2018-10-19T06:11:23.411Z,91.50
2018-10-19T06:12:27.059Z,91.70
2018-10-19T06:13:30.711Z,91.90
2018-10-19T06:14:34.226Z,92.20
2018-10-19T06:15:37.802Z,92.30
2018-10-19T06:16:41.386Z,92.30
2018-10-19T06:17:44.954Z,92.20
2018-10-19T06:18:48.558Z,91.90
2018-10-19T06:19:52.140Z,91.60
2018-10-19T06:20:55.884Z,91.40
2018-10-19T06:21:59.426Z,91.20
2018-10-19T06:23:03.052Z,90.80
2018-10-19T06:24:07.644Z,90.50
2018-10-19T06:25:11.265Z,90.30
2018-10-19T06:26:14.930Z,90.20
2018-10-19T06:27:18.431Z,90.10
2018-10-19T06:28:22.040Z,90.10
2018-10-19T06:29:25.607Z,89.80
2018-10-19T06:30:29.195Z,89.50
2018-10-19T06:31:32.807Z,89.10
2018-10-19T06:32:36.450Z,88.50
2018-10-19T06:33:40.181Z,88.10
2018-10-19T06:34:43.686Z,87.70
2018-10-19T06:35:47.254Z,87.30
2018-10-19T06:36:50.872Z,86.90
2018-10-19T06:37:54.465Z,86.50
2018-10-19T06:38:58.146Z,86.10
2018-10-19T06:40:01.681Z,85.60
2018-10-19T06:41:05.362Z,85.60
2018-10-19T06:42:08.874Z,85.20
2018-10-19T06:43:12.459Z,84.80
2018-10-19T06:44:16.092Z,85.60
2018-10-19T06:45:19.594Z,84.60
2018-10-19T06:46:23.183Z,84.00
2018-10-19T06:47:26.798Z,83.80
2018-10-19T06:48:30.352Z,83.80
2018-10-19T06:49:33.923Z,83.30
2018-10-19T06:50:37.507Z,82.70
2018-10-19T06:51:41.127Z,82.20
2018-10-19T06:52:44.684Z,80.60
2018-10-19T06:53:48.277Z,80.00
2018-10-19T06:54:51.983Z,79.70
2018-10-19T06:55:55.551Z,79.60
2018-10-19T06:56:59.142Z,79.30
2018-10-19T06:58:02.714Z,79.20
2018-10-19T06:59:06.339Z,78.00
2018-10-19T07:00:09.891Z,77.70
2018-10-19T07:01:13.457Z,77.30
2018-10-19T07:02:17.093Z,76.80
2018-10-19T07:03:20.639Z,76.50
2018-10-19T07:04:24.202Z,76.30
2018-10-19T07:05:27.842Z,75.80
2018-10-19T07:06:31.495Z,75.70
2018-10-19T07:07:35.070Z,74.60
2018-10-19T07:08:38.679Z,74.50
2018-10-19T07:09:42.249Z,74.40
2018-10-19T07:10:45.814Z,74.50
2018-10-19T07:11:49.367Z,73.90
2018-10-19T07:12:53.037Z,73.80
2018-10-19T07:13:56.637Z,73.10
2018-10-19T07:15:00.147Z,72.50
2018-10-19T07:16:03.718Z,72.30
2018-10-19T07:17:07.360Z,71.90
2018-10-19T07:18:10.898Z,69.70
2018-10-19T07:19:14.581Z,70.60
2018-10-19T07:20:18.170Z,71.10
2018-10-19T07:21:22.272Z,72.20
2018-10-19T07:22:25.799Z,71.50
2018-10-19T07:23:29.392Z,68.60
2018-10-19T07:24:32.958Z,66.70
2018-10-19T07:25:36.521Z,65.80
2018-10-19T07:26:40.098Z,65.20
2018-10-19T07:27:43.715Z,63.30
2018-10-19T07:28:47.299Z,63.10
2018-10-19T07:29:50.878Z,62.50
2018-10-19T07:30:54.450Z,62.30
2018-10-19T07:31:58.024Z,63.20
2018-10-19T07:33:01.591Z,63.70
2018-10-19T07:34:05.254Z,62.70
2018-10-19T07:35:09.029Z,59.70
2018-10-19T07:36:12.538Z,57.60
2018-10-19T07:37:16.072Z,53.50
2018-10-19T07:38:19.707Z,50.70
2018-10-19T07:39:23.278Z,49.40
2018-10-19T07:40:26.907Z,46.40
2018-10-19T07:41:30.479Z,42.50
2018-10-19T07:42:34.131Z,40.40
2018-10-19T07:43:37.708Z,38.20
2018-10-19T07:44:41.251Z,36.00
2018-10-19T07:45:44.818Z,34.00
2018-10-19T07:46:48.623Z,32.10
2018-10-19T07:47:52.297Z,30.50
2018-10-19T07:48:55.787Z,29.00
2018-10-19T07:49:59.405Z,27.50
2018-10-19T07:51:02.995Z,26.60
2018-10-19T07:52:06.580Z,25.80
2018-10-19T07:53:10.191Z,25.10
2018-10-19T07:54:13.794Z,24.40
2018-10-19T07:55:17.372Z,23.60
2018-10-19T07:56:21.159Z,24.00
2018-10-19T07:57:24.771Z,23.10
2018-10-19T07:58:28.366Z,22.60
2018-10-19T07:59:31.937Z,22.30
2018-10-19T08:00:35.558Z,22.00
2018-10-19T08:01:39.137Z,22.00
2018-10-19T08:02:42.723Z,21.90
2018-10-19T08:03:46.344Z,21.70
2018-10-19T08:04:49.915Z,21.60
2018-10-19T08:05:53.510Z,21.40
2018-10-19T08:06:57.338Z,21.10
2018-10-19T08:08:00.975Z,20.90
2018-10-19T08:09:07.728Z,20.60
2018-10-19T08:10:11.579Z,20.50
2018-10-19T08:11:15.220Z,20.20
2018-10-19T08:12:18.753Z,19.80
2018-10-19T08:13:22.542Z,19.60
2018-10-19T08:14:26.128Z,19.70
2018-10-19T08:15:29.715Z,19.50
2018-10-19T08:16:33.319Z,19.30
2018-10-19T08:17:36.900Z,19.10
2018-10-19T08:18:40.474Z,18.80
2018-10-19T08:19:44.073Z,18.80
2018-10-19T08:20:47.694Z,18.40
2018-10-19T08:21:51.569Z,18.40
2018-10-19T08:22:55.207Z,17.80
2018-10-19T08:23:58.714Z,18.00
2018-10-19T08:25:02.313Z,17.80
2018-10-19T08:26:06.027Z,17.60
2018-10-19T08:27:09.593Z,17.30
2018-10-19T08:28:13.140Z,17.00
2018-10-19T08:29:16.755Z,16.60
2018-10-19T08:30:20.334Z,16.20
2018-10-19T08:31:23.923Z,16.10
2018-10-19T08:32:27.498Z,16.40
2018-10-19T08:33:31.128Z,15.50
2018-10-19T08:34:34.719Z,15.90
2018-10-19T08:35:38.359Z,15.60
2018-10-19T08:36:41.935Z,15.10
2018-10-19T08:37:45.531Z,15.00
2018-10-19T08:38:49.143Z,14.70
2018-10-19T08:39:52.772Z,15.10
2018-10-19T08:40:56.485Z,15.10
2018-10-19T08:42:00.058Z,15.20
2018-10-19T08:43:03.684Z,15.20
2018-10-19T08:44:07.284Z,15.10
2018-10-19T08:45:10.892Z,14.70
2018-10-19T08:46:19.979Z,15.30
2018-10-19T08:47:23.597Z,15.90
2018-10-19T08:48:27.229Z,16.70
2018-10-19T08:49:30.811Z,17.50
2018-10-19T08:50:34.402Z,18.40
2018-10-19T08:51:38.659Z,19.80
2018-10-19T08:52:42.235Z,20.80
2018-10-19T08:53:45.852Z,22.00
2018-10-19T08:54:49.640Z,23.30
2018-10-19T08:55:53.043Z,24.60
2018-10-19T08:56:56.676Z,25.70
2018-10-19T08:58:00.259Z,27.10
2018-10-19T08:59:04.042Z,28.00
2018-10-19T09:00:09.194Z,28.50
2018-10-19T09:01:12.755Z,29.30
2018-10-19T09:02:16.339Z,30.10
2018-10-19T09:03:19.955Z,31.00
2018-10-19T09:04:23.523Z,31.90
2018-10-19T09:05:27.235Z,32.50
2018-10-19T09:06:30.976Z,33.40
2018-10-19T09:07:34.659Z,34.00
2018-10-19T09:08:38.239Z,34.60
2018-10-19T09:09:41.818Z,35.20
2018-10-19T09:10:45.676Z,35.80
2018-10-19T09:11:49.308Z,36.50
2018-10-19T09:12:52.959Z,37.00
2018-10-19T09:13:56.430Z,37.60
2018-10-19T09:15:01.264Z,38.10
2018-10-19T09:16:05.284Z,38.40
2018-10-19T09:17:08.933Z,38.70
2018-10-19T09:18:12.738Z,38.80
2018-10-19T09:19:16.463Z,38.80
2018-10-19T09:20:20.059Z,38.70
2018-10-19T09:21:23.623Z,39.00
2018-10-19T09:22:27.179Z,39.00
2018-10-19T09:23:30.778Z,39.10
2018-10-19T09:24:34.362Z,39.20
2018-10-19T09:25:37.936Z,39.20
2018-10-19T09:26:42.792Z,38.50
2018-10-19T09:27:46.346Z,37.50
2018-10-19T09:28:49.916Z,36.80
2018-10-19T09:29:53.513Z,36.50
2018-10-19T09:30:57.107Z,36.30
2018-10-19T09:32:00.792Z,36.10
2018-10-19T09:33:04.377Z,36.30
2018-10-19T09:34:07.927Z,36.20
2018-10-19T09:35:11.536Z,36.10
2018-10-19T09:36:15.210Z,36.00
2018-10-19T09:37:18.654Z,35.70
2018-10-19T09:38:22.326Z,35.60
2018-10-19T09:39:25.863Z,35.70
2018-10-19T09:40:29.455Z,36.30
2018-10-19T09:41:33.091Z,35.60
2018-10-19T09:42:36.662Z,35.10
2018-10-19T09:43:40.255Z,33.80
2018-10-19T09:44:43.840Z,33.30
2018-10-19T09:45:47.560Z,32.90
2018-10-19T09:46:51.128Z,33.10
2018-10-19T09:47:54.702Z,33.20
2018-10-19T09:48:58.277Z,33.30
2018-10-19T09:50:01.848Z,32.70
2018-10-19T09:51:05.501Z,31.40
2018-10-19T09:52:09.102Z,30.20
2018-10-19T09:53:12.667Z,29.70
2018-10-19T09:54:16.262Z,29.60
2018-10-19T09:55:19.935Z,29.70
2018-10-19T09:56:23.407Z,30.00
2018-10-19T09:57:27.012Z,30.60
2018-10-19T09:58:30.590Z,31.00
2018-10-19T09:59:34.236Z,31.80
2018-10-19T10:00:43.247Z,32.80
2018-10-19T10:01:46.863Z,33.50
2018-10-19T10:02:50.398Z,34.40
2018-10-19T10:03:54.028Z,33.70
2018-10-19T10:04:57.666Z,32.50
2018-10-19T10:06:01.307Z,30.70
2018-10-19T10:07:04.880Z,29.20
2018-10-19T10:08:08.492Z,28.20
2018-10-19T10:09:14.147Z,26.80
2018-10-19T10:10:17.662Z,25.80
2018-10-19T10:11:21.256Z,25.00
2018-10-19T10:12:24.860Z,24.70
2018-10-19T10:13:28.435Z,23.30
2018-10-19T10:14:32.017Z,22.00
2018-10-19T10:15:35.694Z,21.70
2018-10-19T10:16:39.212Z,20.70
2018-10-19T10:17:42.830Z,19.90
2018-10-19T10:18:46.410Z,19.50
2018-10-19T10:19:49.987Z,19.30
2018-10-19T10:20:53.623Z,18.80
2018-10-19T10:21:57.225Z,17.80
2018-10-19T10:23:00.766Z,17.90
2018-10-19T10:24:04.878Z,17.60
2018-10-19T10:25:09.313Z,17.80
2018-10-19T10:26:13.479Z,17.60
2018-10-19T10:27:17.058Z,17.50
2018-10-19T10:28:20.641Z,17.50
2018-10-19T10:29:24.219Z,17.50
2018-10-19T10:30:27.882Z,17.30
2018-10-19T10:31:31.573Z,17.30
2018-10-19T10:32:35.115Z,17.30
2018-10-19T10:33:38.695Z,17.30
2018-10-19T10:34:42.267Z,17.00
2018-10-19T10:35:45.842Z,17.00
2018-10-19T10:36:49.424Z,17.00
2018-10-19T10:37:53.139Z,16.80
2018-10-19T10:38:56.729Z,16.80
2018-10-19T10:40:00.309Z,17.00
2018-10-19T10:41:03.834Z,16.90
2018-10-19T10:42:07.456Z,17.10
2018-10-19T10:43:11.093Z,17.40
2018-10-19T10:44:14.588Z,18.60
2018-10-19T10:45:18.150Z,19.40
2018-10-19T10:46:21.707Z,20.30
2018-10-19T10:47:25.291Z,20.90
2018-10-19T10:48:28.915Z,22.00
2018-10-19T10:49:32.445Z,22.80
2018-10-19T10:50:36.037Z,23.50
2018-10-19T10:51:39.602Z,23.90
2018-10-19T10:52:43.170Z,24.80
2018-10-19T10:53:46.759Z,24.80
2018-10-19T10:54:50.574Z,25.50
2018-10-19T10:55:54.255Z,26.10
2018-10-19T10:56:57.794Z,26.70
2018-10-19T10:58:01.384Z,27.10
2018-10-19T10:59:04.974Z,27.40
2018-10-19T11:00:08.567Z,27.90
2018-10-19T11:01:12.272Z,28.40
2018-10-19T11:02:15.746Z,28.80
2018-10-19T11:03:19.306Z,29.30
2018-10-19T11:04:22.882Z,29.50
2018-10-19T11:05:26.443Z,29.70
2018-10-19T11:06:30.007Z,29.70
2018-10-19T11:07:33.807Z,29.40
2018-10-19T11:08:37.178Z,29.40
2018-10-19T11:09:40.824Z,29.70
2018-10-19T11:10:44.361Z,30.60
2018-10-19T11:11:47.915Z,31.40
2018-10-19T11:12:51.527Z,31.80
2018-10-19T11:13:55.126Z,33.10
2018-10-19T11:14:58.706Z,34.10
2018-10-19T11:16:02.324Z,35.30
2018-10-19T11:17:06.081Z,34.80
2018-10-19T11:18:09.651Z,35.60
2018-10-19T11:19:13.333Z,35.70
2018-10-19T11:20:17.007Z,35.90
2018-10-19T11:21:20.575Z,35.90
2018-10-19T11:22:24.183Z,36.50
2018-10-19T11:23:27.796Z,36.60
2018-10-19T11:24:31.545Z,37.30
2018-10-19T11:25:35.115Z,36.90
2018-10-19T11:26:38.702Z,37.50
2018-10-19T11:27:42.275Z,37.90
2018-10-19T11:28:45.984Z,37.70
2018-10-19T11:29:49.563Z,37.50
2018-10-19T11:30:53.169Z,37.90
2018-10-19T11:31:56.733Z,38.00
2018-10-19T11:33:00.335Z,37.40
2018-10-19T11:34:03.955Z,37.40
2018-10-19T11:35:07.766Z,37.20
2018-10-19T11:36:11.359Z,36.70
2018-10-19T11:37:15.034Z,36.20
2018-10-19T11:38:18.523Z,37.00
2018-10-19T11:39:22.178Z,37.00
2018-10-19T11:40:32.678Z,36.60
2018-10-19T11:41:36.323Z,36.30
2018-10-19T11:42:39.871Z,35.10
2018-10-19T11:43:43.498Z,35.20
2018-10-19T11:44:47.014Z,36.00
2018-10-19T11:45:50.579Z,35.40
2018-10-19T11:46:54.174Z,35.40
2018-10-19T11:47:57.786Z,36.10
2018-10-19T11:49:01.378Z,35.90
2018-10-19T11:50:05.358Z,35.80
2018-10-19T11:51:08.927Z,35.80
2018-10-19T11:52:12.517Z,35.60
2018-10-19T11:53:16.119Z,34.80
2018-10-19T11:54:19.646Z,34.90
2018-10-19T11:55:23.222Z,35.40
2018-10-19T11:56:26.795Z,35.50
2018-10-19T11:57:30.381Z,35.40
2018-10-19T11:58:33.947Z,35.30
2018-10-19T11:59:37.558Z,35.50
2018-10-19T12:00:41.110Z,35.00
2018-10-19T12:01:44.711Z,35.10
2018-10-19T12:02:48.399Z,35.30
2018-10-19T12:03:51.950Z,35.50
2018-10-19T12:04:55.560Z,35.90
2018-10-19T12:05:59.127Z,35.20
2018-10-19T12:07:02.727Z,34.50
2018-10-19T12:08:06.281Z,34.10
2018-10-19T12:09:10.589Z,34.10
2018-10-19T12:10:14.722Z,34.10
2018-10-19T12:11:18.231Z,34.20
2018-10-19T12:12:21.807Z,34.50
2018-10-19T12:13:25.363Z,33.80
2018-10-19T12:14:28.930Z,33.90
2018-10-19T12:15:32.495Z,33.70
2018-10-19T12:16:36.215Z,33.70
2018-10-19T12:17:40.280Z,33.80
2018-10-19T12:18:43.843Z,33.70
2018-10-19T12:19:47.516Z,34.00
2018-10-19T12:20:51.076Z,34.10
2018-10-19T12:21:54.707Z,33.90
2018-10-19T12:22:58.298Z,33.80
2018-10-19T12:24:01.827Z,34.10
2018-10-19T12:25:06.787Z,34.80
2018-10-19T12:26:10.395Z,34.10
2018-10-19T12:27:14.070Z,34.60
2018-10-19T12:28:17.673Z,34.30
2018-10-19T12:29:21.260Z,33.60
2018-10-19T12:30:24.852Z,33.30
2018-10-19T12:31:28.449Z,33.40
2018-10-19T12:32:32.015Z,33.70
2018-10-19T12:33:35.598Z,33.50
2018-10-19T12:34:39.458Z,33.30
2018-10-19T12:35:43.091Z,33.30
2018-10-19T12:36:46.659Z,33.20
2018-10-19T12:37:50.227Z,33.40
2018-10-19T12:38:53.789Z,33.60
2018-10-19T12:39:57.371Z,34.00
2018-10-19T12:41:00.958Z,34.30
2018-10-19T12:42:04.503Z,35.30
2018-10-19T12:43:08.140Z,34.70
2018-10-19T12:44:11.643Z,35.20
2018-10-19T12:46:41.387Z,35.80
2018-10-19T12:47:44.991Z,36.10
2018-10-19T12:48:49.033Z,37.30
2018-10-19T12:49:52.566Z,37.60
2018-10-19T12:50:56.150Z,38.30
2018-10-19T12:51:59.731Z,37.80
2018-10-19T12:53:03.287Z,37.70
2018-10-19T12:54:07.295Z,38.60
2018-10-19T12:55:10.737Z,39.10
2018-10-19T12:56:14.677Z,39.60
2018-10-19T12:57:18.229Z,39.80
2018-10-19T12:58:21.811Z,39.90
2018-10-19T12:59:25.449Z,39.60
2018-10-19T13:00:28.970Z,39.60
2018-10-19T13:01:32.982Z,40.60
2018-10-19T13:02:36.559Z,40.50
2018-10-19T13:03:40.543Z,40.90
2018-10-19T13:04:44.035Z,40.80
2018-10-19T13:05:47.595Z,40.90
2018-10-19T13:06:51.167Z,41.10
2018-10-19T13:07:54.846Z,41.30
2018-10-19T13:08:58.504Z,41.30
2018-10-19T13:10:02.026Z,41.50
2018-10-19T13:11:05.883Z,41.30
2018-10-19T13:12:09.467Z,40.90
2018-10-19T13:13:13.158Z,41.00
2018-10-19T13:14:16.659Z,41.90
2018-10-19T13:15:20.229Z,42.70
2018-10-19T13:16:23.967Z,41.70
2018-10-19T13:17:27.610Z,41.30
2018-10-19T13:18:32.483Z,42.10
2018-10-19T13:19:36.066Z,42.10
2018-10-19T13:20:39.682Z,41.80
2018-10-19T13:21:43.306Z,42.70
2018-10-19T13:22:46.860Z,43.70
2018-10-19T13:23:50.407Z,43.20
2018-10-19T13:24:54.075Z,42.80
2018-10-19T13:25:57.810Z,41.90
2018-10-19T13:27:01.737Z,41.60
2018-10-19T13:28:05.291Z,41.70
2018-10-19T13:29:08.854Z,42.60
2018-10-19T13:30:12.466Z,43.00
2018-10-19T13:31:16.017Z,43.80
2018-10-19T13:32:19.590Z,44.20
2018-10-19T13:33:23.375Z,44.50
2018-10-19T13:34:27.087Z,44.50
2018-10-19T13:35:30.591Z,45.10
2018-10-19T13:36:34.186Z,46.00
2018-10-19T13:37:37.876Z,46.10
2018-10-19T13:38:41.427Z,46.50
2018-10-19T13:39:45.016Z,46.60
2018-10-19T13:40:48.891Z,46.60
2018-10-19T13:41:52.472Z,46.10
2018-10-19T13:42:56.039Z,46.50